Time;durP1;ratioP1;P1;durP2;ratioP2;P2;SDS_P1;SDS_P2;PMS_P1;PMS_P2;Temp;Humidity;BMP_temperature;BMP_pressure;BME280_temperature;BME280_humidity;BME280_pressure;Samples;Min_cycle;Max_cycle;Signal;HPM_P1;HPM_P2
2022/11/01 00:01:28;;;;;;;122.70;63.10;;;;;;;;;;4898181;29;20031;-65
2022/11/01 00:03:54;;;;;;;115.95;61.47;;;;;;;;;;4898458;29;20552;-66
2022/11/01 00:06:20;;;;;;;122.35;62.78;;;;;;;;;;4898130;29;20119;-64
2022/11/01 00:08:46;;;;;;;123.30;61.33;;;;;;;;;;4898235;29;20508;-63
2022/11/01 00:11:14;;;;;;;113.10;58.38;;;;;;;;;;4897897;29;20120;-64
2022/11/01 00:13:40;;;;;;;125.03;61.15;;;;;;;;;;4898226;29;20048;-64
2022/11/01 00:16:07;;;;;;;116.70;59.55;;;;;;;;;;4898052;29;20033;-65
2022/11/01 00:18:33;;;;;;;113.97;56.55;;;;;;;;;;4897942;29;20043;-64
2022/11/01 00:20:59;;;;;;;123.82;63.72;;;;;;;;;;4898145;29;20052;-64
2022/11/01 00:23:25;;;;;;;122.32;62.58;;;;;;;;;;4898249;29;20031;-64
2022/11/01 00:25:51;;;;;;;119.00;59.05;;;;;;;;;;4898449;29;20032;-65
2022/11/01 00:28:17;;;;;;;116.15;59.55;;;;;;;;;;4898140;29;20111;-65
2022/11/01 00:30:43;;;;;;;114.68;61.33;;;;;;;;;;4897585;29;20108;-65
2022/11/01 00:33:09;;;;;;;111.78;57.25;;;;;;;;;;4897840;29;20021;-65
2022/11/01 00:35:35;;;;;;;111.95;59.30;;;;;;;;;;4898013;29;20025;-64
2022/11/01 00:38:02;;;;;;;109.88;57.33;;;;;;;;;;4897364;29;20040;-65
2022/11/01 00:40:28;;;;;;;108.63;56.42;;;;;;;;;;4897696;29;20118;-65
2022/11/01 00:42:54;;;;;;;105.40;55.72;;;;;;;;;;4897640;29;20084;-64
2022/11/01 00:45:20;;;;;;;104.88;54.67;;;;;;;;;;4897250;29;20033;-64
2022/11/01 00:47:47;;;;;;;101.45;54.60;;;;;;;;;;4897278;29;20028;-64
2022/11/01 00:50:13;;;;;;;97.68;52.35;;;;;;;;;;4897693;29;20497;-65
2022/11/01 00:52:39;;;;;;;103.60;54.03;;;;;;;;;;4897331;29;20047;-65
2022/11/01 00:55:05;;;;;;;99.13;55.15;;;;;;;;;;4897646;29;20037;-64
2022/11/01 00:57:31;;;;;;;101.18;54.38;;;;;;;;;;4897539;29;20032;-65
2022/11/01 00:59:57;;;;;;;96.10;53.65;;;;;;;;;;4897214;29;20028;-65
2022/11/01 01:02:23;;;;;;;93.65;52.47;;;;;;;;;;4897310;29;20045;-65
2022/11/01 01:04:50;;;;;;;96.90;53.28;;;;;;;;;;4897393;29;20021;-65
2022/11/01 01:07:16;;;;;;;92.50;50.55;;;;;;;;;;4897251;29;20032;-66
2022/11/01 01:09:42;;;;;;;87.70;50.33;;;;;;;;;;4897292;29;20092;-65
2022/11/01 01:12:08;;;;;;;90.00;49.88;;;;;;;;;;4897420;29;20044;-64
2022/11/01 01:14:35;;;;;;;91.78;51.05;;;;;;;;;;4897284;29;20529;-65
2022/11/01 01:17:01;;;;;;;95.15;51.65;;;;;;;;;;4897117;29;20046;-65
2022/11/01 01:19:30;;;;;;;83.25;47.67;;;;;;;;;;4897046;29;20105;-66
2022/11/01 01:21:56;;;;;;;88.18;48.75;;;;;;;;;;4896985;29;20143;-65
2022/11/01 01:24:22;;;;;;;88.35;49.05;;;;;;;;;;4897291;29;20104;-65
2022/11/01 01:26:48;;;;;;;89.10;49.17;;;;;;;;;;4897308;29;20037;-65
2022/11/01 01:29:16;;;;;;;89.20;47.78;;;;;;;;;;4896804;29;20104;-65
2022/11/01 01:31:42;;;;;;;78.72;46.90;;;;;;;;;;4896817;29;20127;-65
2022/11/01 01:34:08;;;;;;;85.88;47.42;;;;;;;;;;4896813;29;20070;-66
2022/11/01 01:36:34;;;;;;;81.20;47.17;;;;;;;;;;4896442;29;20033;-65
2022/11/01 01:39:00;;;;;;;80.90;46.63;;;;;;;;;;4896260;29;20473;-66
2022/11/01 01:44:29;;;;;;;82.05;46.75;;;;;;;;;;4896522;29;20071;-65
2022/11/01 01:46:55;;;;;;;84.97;47.83;;;;;;;;;;4896096;29;20507;-64
2022/11/01 01:49:21;;;;;;;90.07;49.25;;;;;;;;;;4896387;29;20537;-65
2022/11/01 01:51:47;;;;;;;90.43;51.50;;;;;;;;;;4896098;29;20481;-64
2022/11/01 01:54:13;;;;;;;90.18;50.13;;;;;;;;;;4896050;29;20036;-65
2022/11/01 01:56:39;;;;;;;86.68;48.17;;;;;;;;;;4896408;29;20060;-64
2022/11/01 01:59:10;;;;;;;85.22;49.70;;;;;;;;;;4895709;29;20088;-65
2022/11/01 02:01:38;;;;;;;85.00;48.40;;;;;;;;;;4895682;29;20043;-66
2022/11/01 02:04:06;;;;;;;81.70;46.28;;;;;;;;;;4895221;29;20036;-66
2022/11/01 02:06:32;;;;;;;83.95;47.78;;;;;;;;;;4895780;29;20512;-65
2022/11/01 02:08:59;;;;;;;80.65;47.40;;;;;;;;;;4895808;29;20028;-65
2022/11/01 02:11:25;;;;;;;87.20;49.40;;;;;;;;;;4896089;29;20040;-66
2022/11/01 02:13:52;;;;;;;85.70;48.83;;;;;;;;;;4895851;29;20029;-65
2022/11/01 02:16:36;;;;;;;84.18;48.08;;;;;;;;;;4896100;29;20040;-64
2022/11/01 02:19:11;;;;;;;84.72;46.72;;;;;;;;;;4896025;29;20033;-65
2022/11/01 02:21:46;;;;;;;87.30;49.17;;;;;;;;;;4896120;29;20370;-65
2022/11/01 02:24:18;;;;;;;83.07;48.40;;;;;;;;;;4896096;29;20040;-66
2022/11/01 02:27:03;;;;;;;79.55;46.47;;;;;;;;;;4895916;29;20035;-65
2022/11/01 02:29:58;;;;;;;81.47;45.65;;;;;;;;;;4895834;29;20043;-64
2022/11/01 02:32:37;;;;;;;80.90;45.38;;;;;;;;;;4801646;29;20102;-65
2022/11/01 02:35:15;;;;;;;82.32;45.83;;;;;;;;;;4801969;29;20035;-65
2022/11/01 02:37:47;;;;;;;75.80;44.92;;;;;;;;;;4801211;29;20427;-65
2022/11/01 02:40:33;;;;;;;69.43;42.20;;;;;;;;;;4801239;29;20172;-66
2022/11/01 02:43:03;;;;;;;75.22;42.92;;;;;;;;;;4801680;29;20047;-65
2022/11/01 02:45:35;;;;;;;74.47;43.58;;;;;;;;;;4801896;29;20610;-65
2022/11/01 02:48:01;;;;;;;71.95;42.17;;;;;;;;;;4801524;29;20030;-66
2022/11/01 02:50:31;;;;;;;75.03;42.47;;;;;;;;;;4801548;29;20627;-65
2022/11/01 02:52:58;;;;;;;72.28;42.65;;;;;;;;;;4801591;29;20126;-64
2022/11/01 02:55:30;;;;;;;70.65;41.92;;;;;;;;;;4801453;29;20092;-64
2022/11/01 02:58:01;;;;;;;70.53;42.00;;;;;;;;;;4801615;29;20134;-64
2022/11/01 03:00:31;;;;;;;67.63;41.38;;;;;;;;;;4801296;29;20031;-64
2022/11/01 03:02:57;;;;;;;68.32;41.55;;;;;;;;;;4802971;29;20043;-65
2022/11/01 03:05:46;;;;;;;69.78;41.13;;;;;;;;;;4802531;29;20404;-65
2022/11/01 03:08:14;;;;;;;64.82;39.72;;;;;;;;;;4788566;29;20053;-65
2022/11/01 03:10:58;;;;;;;64.68;38.88;;;;;;;;;;4856093;29;20135;-66
2022/11/01 03:13:31;;;;;;;68.03;40.40;;;;;;;;;;4855798;29;20521;-65
2022/11/01 03:16:20;;;;;;;60.92;38.25;;;;;;;;;;4857051;29;20026;-64
2022/11/01 03:19:02;;;;;;;66.53;39.10;;;;;;;;;;4822593;29;20042;-67
2022/11/01 03:21:33;;;;;;;60.90;37.08;;;;;;;;;;4822502;29;20919;-65
2022/11/01 03:24:02;;;;;;;64.93;38.78;;;;;;;;;;4822493;29;20562;-67
2022/11/01 03:26:30;;;;;;;65.20;37.95;;;;;;;;;;4822452;29;20062;-65
2022/11/01 03:28:58;;;;;;;68.88;39.42;;;;;;;;;;4822176;29;20034;-67
2022/11/01 03:31:32;;;;;;;63.08;39.58;;;;;;;;;;4822261;29;20499;-64
2022/11/01 03:34:18;;;;;;;65.30;38.50;;;;;;;;;;4822642;29;20053;-66
2022/11/01 03:36:50;;;;;;;67.35;39.03;;;;;;;;;;4822167;29;20054;-65
2022/11/01 03:39:22;;;;;;;69.72;39.97;;;;;;;;;;4822433;29;20070;-65
2022/11/01 03:41:50;;;;;;;70.45;41.03;;;;;;;;;;4822386;29;20042;-65
2022/11/01 03:44:16;;;;;;;62.88;38.40;;;;;;;;;;4826416;29;20031;-65
2022/11/01 03:46:42;;;;;;;66.95;39.97;;;;;;;;;;4859244;29;20041;-64
2022/11/01 03:49:08;;;;;;;71.05;41.85;;;;;;;;;;4859181;29;20045;-64
2022/11/01 03:51:34;;;;;;;73.78;41.45;;;;;;;;;;4859120;29;20037;-65
2022/11/01 03:54:00;;;;;;;69.80;41.78;;;;;;;;;;4859186;29;20041;-64
2022/11/01 03:56:26;;;;;;;71.47;40.75;;;;;;;;;;4890162;29;20053;-64
2022/11/01 03:58:52;;;;;;;67.85;39.80;;;;;;;;;;4898820;29;20024;-66
2022/11/01 04:01:18;;;;;;;65.45;38.00;;;;;;;;;;4898577;29;20485;-65
2022/11/01 04:03:44;;;;;;;61.85;37.15;;;;;;;;;;4898221;29;20039;-65
2022/11/01 04:06:10;;;;;;;59.97;37.00;;;;;;;;;;4898253;29;20024;-66
2022/11/01 04:08:37;;;;;;;57.75;36.97;;;;;;;;;;4898200;29;20029;-64
2022/11/01 04:11:03;;;;;;;59.50;37.38;;;;;;;;;;4898295;29;20131;-64
2022/11/01 04:13:30;;;;;;;58.45;35.03;;;;;;;;;;4898552;29;20021;-64
2022/11/01 04:21:26;;;;;;;53.80;34.53;;;;;;;;;;4898333;29;20038;-64
2022/11/01 04:23:52;;;;;;;53.28;33.25;;;;;;;;;;4897969;29;20025;-64
2022/11/01 04:26:19;;;;;;;54.35;34.17;;;;;;;;;;4897688;29;20031;-64
2022/11/01 04:28:58;;;;;;;57.17;33.92;;;;;;;;;;4898024;29;20072;-66
2022/11/01 04:31:28;;;;;;;51.83;32.47;;;;;;;;;;4897882;29;20039;-64
2022/11/01 04:33:54;;;;;;;56.17;33.45;;;;;;;;;;4897983;29;20103;-64
2022/11/01 04:36:21;;;;;;;50.83;32.28;;;;;;;;;;4897864;29;20043;-64
2022/11/01 04:38:54;;;;;;;51.78;31.77;;;;;;;;;;4897932;29;20049;-64
2022/11/01 04:41:21;;;;;;;51.72;30.98;;;;;;;;;;4897764;29;20084;-64
2022/11/01 04:43:48;;;;;;;51.55;31.95;;;;;;;;;;4897587;29;20035;-65
2022/11/01 04:46:14;;;;;;;50.65;31.27;;;;;;;;;;4897826;29;20028;-64
2022/11/01 04:48:40;;;;;;;49.50;30.98;;;;;;;;;;4897674;29;20068;-64
2022/11/01 04:51:07;;;;;;;49.97;31.30;;;;;;;;;;4897750;29;20052;-65
2022/11/01 04:53:33;;;;;;;48.15;31.20;;;;;;;;;;4897307;29;20096;-64
2022/11/01 04:56:01;;;;;;;49.45;30.52;;;;;;;;;;4897426;29;20028;-64
2022/11/01 04:58:27;;;;;;;48.42;31.27;;;;;;;;;;4897035;29;20028;-64
2022/11/01 05:00:53;;;;;;;49.65;29.95;;;;;;;;;;4897226;29;20032;-64
2022/11/01 05:03:19;;;;;;;47.75;29.95;;;;;;;;;;4897098;29;20393;-64
2022/11/01 05:05:45;;;;;;;49.20;30.45;;;;;;;;;;4897423;29;20032;-65
2022/11/01 05:08:12;;;;;;;45.72;29.98;;;;;;;;;;4896984;29;20041;-65
2022/11/01 05:10:39;;;;;;;51.38;30.83;;;;;;;;;;4897220;29;20099;-66
2022/11/01 05:13:05;;;;;;;47.28;29.98;;;;;;;;;;4897268;29;20040;-64
2022/11/01 05:15:32;;;;;;;45.47;29.08;;;;;;;;;;4897481;29;20028;-64
2022/11/01 05:17:58;;;;;;;45.05;28.70;;;;;;;;;;4897024;29;20481;-64
2022/11/01 05:20:24;;;;;;;47.00;30.42;;;;;;;;;;4897319;29;20031;-64
2022/11/01 05:22:50;;;;;;;45.67;29.40;;;;;;;;;;4896866;29;20029;-64
2022/11/01 05:25:16;;;;;;;44.35;28.50;;;;;;;;;;4897183;29;20473;-64
2022/11/01 05:27:42;;;;;;;44.88;28.75;;;;;;;;;;4896827;29;20061;-65
2022/11/01 05:30:09;;;;;;;43.58;29.15;;;;;;;;;;4896848;29;20146;-64
2022/11/01 05:32:36;;;;;;;42.40;28.38;;;;;;;;;;4896423;29;20044;-65
2022/11/01 05:35:03;;;;;;;44.30;28.65;;;;;;;;;;4896939;29;20076;-64
2022/11/01 05:37:29;;;;;;;43.22;28.67;;;;;;;;;;4896238;29;20036;-64
2022/11/01 05:39:56;;;;;;;47.75;30.02;;;;;;;;;;4896114;29;20064;-64
2022/11/01 05:42:22;;;;;;;48.25;30.90;;;;;;;;;;4896679;29;20100;-64
2022/11/01 05:44:48;;;;;;;45.38;29.42;;;;;;;;;;4897035;29;20029;-64
2022/11/01 05:47:14;;;;;;;44.08;29.30;;;;;;;;;;4896557;29;20388;-66
2022/11/01 05:49:41;;;;;;;44.10;29.40;;;;;;;;;;4896612;29;20037;-66
2022/11/01 05:52:07;;;;;;;43.80;29.25;;;;;;;;;;4896539;29;20040;-63
2022/11/01 05:54:33;;;;;;;47.60;29.52;;;;;;;;;;4896282;29;20466;-64
2022/11/01 05:56:59;;;;;;;42.78;28.65;;;;;;;;;;4896665;29;20501;-64
2022/11/01 05:59:25;;;;;;;40.10;27.45;;;;;;;;;;4895080;29;20097;-65
2022/11/01 06:01:51;;;;;;;41.70;27.83;;;;;;;;;;4894934;29;20036;-65
2022/11/01 06:04:17;;;;;;;42.60;30.35;;;;;;;;;;4895418;29;20056;-64
2022/11/01 06:06:43;;;;;;;47.25;29.33;;;;;;;;;;4893400;29;20035;-66
2022/11/01 06:09:09;;;;;;;44.20;29.60;;;;;;;;;;4894449;29;20040;-65
2022/11/01 06:11:35;;;;;;;48.25;31.48;;;;;;;;;;4894221;29;20071;-64
2022/11/01 06:14:01;;;;;;;45.53;30.90;;;;;;;;;;4895047;29;20092;-67
2022/11/01 06:16:27;;;;;;;50.22;31.45;;;;;;;;;;4894320;29;20541;-64
2022/11/01 06:18:53;;;;;;;51.05;31.80;;;;;;;;;;4894761;29;20389;-64
2022/11/01 06:21:21;;;;;;;52.33;32.25;;;;;;;;;;4895070;29;20059;-64
2022/11/01 06:23:49;;;;;;;53.25;32.72;;;;;;;;;;4894675;29;20081;-64
2022/11/01 06:26:15;;;;;;;50.53;31.88;;;;;;;;;;4892800;29;20851;-65
2022/11/01 06:28:41;;;;;;;52.30;32.97;;;;;;;;;;4895203;29;20079;-65
2022/11/01 06:31:07;;;;;;;48.70;32.97;;;;;;;;;;4894832;29;20104;-65
2022/11/01 06:33:33;;;;;;;52.45;32.67;;;;;;;;;;4894174;29;20036;-64
2022/11/01 06:36:00;;;;;;;51.67;33.05;;;;;;;;;;4894776;29;20069;-65
2022/11/01 06:38:26;;;;;;;48.97;33.20;;;;;;;;;;4894207;29;20064;-63
2022/11/01 06:40:52;;;;;;;50.67;33.35;;;;;;;;;;4894751;29;20043;-64
2022/11/01 06:43:18;;;;;;;48.90;31.95;;;;;;;;;;4894488;29;20033;-65
2022/11/01 06:45:44;;;;;;;50.05;35.10;;;;;;;;;;4894664;29;20044;-65
2022/11/01 06:48:10;;;;;;;51.60;33.22;;;;;;;;;;4894506;29;20025;-67
2022/11/01 06:50:36;;;;;;;53.10;34.92;;;;;;;;;;4897144;29;20032;-67
2022/11/01 06:53:03;;;;;;;51.05;32.67;;;;;;;;;;4898575;29;20052;-64
2022/11/01 06:55:29;;;;;;;53.70;34.90;;;;;;;;;;4898373;29;20190;-65
2022/11/01 06:57:56;;;;;;;55.25;34.83;;;;;;;;;;4898509;29;20027;-65
2022/11/01 07:00:22;;;;;;;51.00;34.40;;;;;;;;;;4898252;29;20508;-66
2022/11/01 07:02:48;;;;;;;54.30;35.10;;;;;;;;;;4898597;29;20029;-66
2022/11/01 07:05:15;;;;;;;52.05;34.95;;;;;;;;;;4899300;29;20038;-68
2022/11/01 07:07:41;;;;;;;56.90;35.83;;;;;;;;;;4898285;29;20045;-65
2022/11/01 07:10:07;;;;;;;55.80;35.22;;;;;;;;;;4899482;29;20033;-67
2022/11/01 07:12:33;;;;;;;55.85;36.00;;;;;;;;;;4898583;29;20045;-65
2022/11/01 07:14:59;;;;;;;57.85;36.53;;;;;;;;;;4898226;29;20039;-65
2022/11/01 07:17:26;;;;;;;58.33;37.53;;;;;;;;;;4898280;29;20037;-66
2022/11/01 07:19:52;;;;;;;56.45;35.70;;;;;;;;;;4897622;29;20032;-66
2022/11/01 07:22:18;;;;;;;57.70;37.88;;;;;;;;;;4897629;29;20036;-69
2022/11/01 07:24:44;;;;;;;57.30;37.85;;;;;;;;;;4898034;29;20025;-68
2022/11/01 07:27:10;;;;;;;57.45;36.92;;;;;;;;;;4895180;29;20043;-66
2022/11/01 07:29:38;;;;;;;64.32;39.00;;;;;;;;;;4897879;29;20096;-66
2022/11/01 07:32:04;;;;;;;60.92;37.75;;;;;;;;;;4897661;29;20032;-66
2022/11/01 07:34:30;;;;;;;61.75;37.85;;;;;;;;;;4897702;29;20112;-70
2022/11/01 07:36:56;;;;;;;59.92;37.83;;;;;;;;;;4897492;29;20111;-64
2022/11/01 07:39:22;;;;;;;54.80;36.30;;;;;;;;;;4897092;29;20059;-65
2022/11/01 07:41:50;;;;;;;59.60;37.80;;;;;;;;;;4897285;29;20526;-64
2022/11/01 07:44:16;;;;;;;58.05;38.22;;;;;;;;;;4896847;29;20063;-67
2022/11/01 07:46:42;;;;;;;64.45;39.08;;;;;;;;;;4897362;29;20025;-66
2022/11/01 07:49:08;;;;;;;71.20;42.83;;;;;;;;;;4897197;29;20021;-66
2022/11/01 07:51:34;;;;;;;66.53;40.55;;;;;;;;;;4897169;29;20029;-69
2022/11/01 07:54:00;;;;;;;64.97;40.10;;;;;;;;;;4897537;29;20425;-67
2022/11/01 07:56:26;;;;;;;66.10;40.90;;;;;;;;;;4897501;29;20493;-66
2022/11/01 07:58:52;;;;;;;67.93;41.13;;;;;;;;;;4897137;29;20481;-66
2022/11/01 08:01:19;;;;;;;64.65;40.97;;;;;;;;;;4896171;29;20041;-66
2022/11/01 08:03:45;;;;;;;69.80;42.22;;;;;;;;;;4897908;29;20043;-64
2022/11/01 08:06:11;;;;;;;67.65;41.55;;;;;;;;;;4897927;29;20025;-64
2022/11/01 08:08:37;;;;;;;69.35;42.05;;;;;;;;;;4898062;29;20037;-62
2022/11/01 08:11:03;;;;;;;65.82;41.17;;;;;;;;;;4897999;29;20052;-62
2022/11/01 08:13:29;;;;;;;63.63;40.65;;;;;;;;;;4897636;29;20037;-61
2022/11/01 08:15:56;;;;;;;71.65;42.92;;;;;;;;;;4898190;29;20496;-65
2022/11/01 08:18:25;;;;;;;70.50;40.75;;;;;;;;;;4897979;29;20068;-65
2022/11/01 08:20:52;;;;;;;67.45;41.63;;;;;;;;;;4898180;29;20173;-62
2022/11/01 08:23:18;;;;;;;66.40;42.33;;;;;;;;;;4897347;29;20453;-61
2022/11/01 08:25:44;;;;;;;69.03;44.13;;;;;;;;;;4897871;29;20436;-61
2022/11/01 08:28:12;;;;;;;71.72;42.38;;;;;;;;;;4898317;29;20036;-62
2022/11/01 08:30:39;;;;;;;76.07;43.58;;;;;;;;;;4897665;29;20060;-62
2022/11/01 08:33:06;;;;;;;68.80;43.20;;;;;;;;;;4897964;29;20029;-61
2022/11/01 08:35:32;;;;;;;73.18;44.20;;;;;;;;;;4897551;29;20028;-64
2022/11/01 08:37:59;;;;;;;81.68;45.72;;;;;;;;;;4897150;29;20107;-61
2022/11/01 08:40:25;;;;;;;73.60;43.60;;;;;;;;;;4897830;29;20056;-66
2022/11/01 08:42:51;;;;;;;67.93;42.85;;;;;;;;;;4897896;29;20020;-62
2022/11/01 08:45:18;;;;;;;75.28;44.17;;;;;;;;;;4897653;29;20028;-60
2022/11/01 08:47:44;;;;;;;72.35;42.78;;;;;;;;;;4898031;29;20446;-63
2022/11/01 08:50:12;;;;;;;76.50;44.17;;;;;;;;;;4897507;29;20028;-62
2022/11/01 08:52:38;;;;;;;77.75;43.60;;;;;;;;;;4897423;29;20720;-63
2022/11/01 08:55:07;;;;;;;78.93;43.90;;;;;;;;;;4897637;29;20124;-63
2022/11/01 08:57:33;;;;;;;75.53;43.35;;;;;;;;;;4897315;29;20246;-61
2022/11/01 08:59:59;;;;;;;77.78;43.30;;;;;;;;;;4897143;29;20077;-64
2022/11/01 09:02:25;;;;;;;80.45;44.17;;;;;;;;;;4897013;29;20075;-61
2022/11/01 09:04:51;;;;;;;80.20;44.80;;;;;;;;;;4896972;29;20024;-67
2022/11/01 09:07:18;;;;;;;85.85;44.28;;;;;;;;;;4897040;29;20077;-63
2022/11/01 09:09:44;;;;;;;77.90;44.70;;;;;;;;;;4896428;29;20041;-62
2022/11/01 09:12:11;;;;;;;80.38;45.85;;;;;;;;;;4895524;29;20044;-62
2022/11/01 09:14:38;;;;;;;77.53;44.55;;;;;;;;;;4895564;29;20024;-65
2022/11/01 09:17:04;;;;;;;73.60;43.67;;;;;;;;;;4896581;29;20028;-62
2022/11/01 09:19:30;;;;;;;80.93;44.80;;;;;;;;;;4896602;29;20115;-62
2022/11/01 09:21:56;;;;;;;75.25;44.55;;;;;;;;;;4896419;29;20032;-63
2022/11/01 09:24:24;;;;;;;75.85;45.40;;;;;;;;;;4896758;29;20032;-62
2022/11/01 09:26:50;;;;;;;77.30;43.83;;;;;;;;;;4896598;29;20028;-64
2022/11/01 09:29:17;;;;;;;77.70;43.33;;;;;;;;;;4896749;29;20035;-63
2022/11/01 09:31:43;;;;;;;78.18;43.75;;;;;;;;;;4896685;29;20498;-61
2022/11/01 09:34:10;;;;;;;78.43;45.75;;;;;;;;;;4896174;29;20028;-64
2022/11/01 09:36:37;;;;;;;79.18;45.78;;;;;;;;;;4896170;29;20051;-65
2022/11/01 09:39:03;;;;;;;74.88;44.05;;;;;;;;;;4896228;29;20080;-62
2022/11/01 09:41:29;;;;;;;80.15;45.65;;;;;;;;;;4896573;29;20024;-67
2022/11/01 09:43:56;;;;;;;77.93;45.67;;;;;;;;;;4896177;29;20029;-66
2022/11/01 09:46:25;;;;;;;75.57;43.80;;;;;;;;;;4896431;29;20580;-64
2022/11/01 09:48:51;;;;;;;74.13;45.22;;;;;;;;;;4896315;29;20040;-65
2022/11/01 09:51:22;;;;;;;82.80;45.30;;;;;;;;;;4895343;29;20055;-62
2022/11/01 09:53:48;;;;;;;78.63;44.58;;;;;;;;;;4896223;29;20099;-66
2022/11/01 09:56:26;;;;;;;80.07;44.40;;;;;;;;;;4896320;29;20511;-64
2022/11/01 09:59:01;;;;;;;77.95;45.28;;;;;;;;;;4895463;29;20032;-67
2022/11/01 10:01:46;;;;;;;74.65;43.33;;;;;;;;;;4879701;29;20377;-65
2022/11/01 10:04:31;;;;;;;78.47;45.30;;;;;;;;;;4895929;29;20028;-66
2022/11/01 10:07:05;;;;;;;84.80;46.83;;;;;;;;;;4895399;29;20072;-62
2022/11/01 10:09:50;;;;;;;77.07;44.13;;;;;;;;;;4895883;29;20059;-63
2022/11/01 10:12:31;;;;;;;83.40;46.33;;;;;;;;;;4895954;29;20088;-63
2022/11/01 10:15:19;;;;;;;76.15;44.03;;;;;;;;;;4896203;29;20481;-66
2022/11/01 10:17:52;;;;;;;86.97;46.58;;;;;;;;;;4895988;29;20035;-62
2022/11/01 10:20:19;;;;;;;81.55;46.42;;;;;;;;;;4895544;29;20644;-62
2022/11/01 10:22:47;;;;;;;82.93;46.58;;;;;;;;;;4895783;29;20039;-65
2022/11/01 10:25:13;;;;;;;85.80;46.92;;;;;;;;;;4878156;29;20512;-66
2022/11/01 10:27:52;;;;;;;76.85;47.00;;;;;;;;;;4895690;29;20024;-63
2022/11/01 10:30:18;;;;;;;86.68;48.38;;;;;;;;;;4895532;29;20025;-62
2022/11/01 10:32:44;;;;;;;82.95;47.35;;;;;;;;;;4878141;29;20071;-62
2022/11/01 10:35:16;;;;;;;84.93;47.67;;;;;;;;;;4895495;29;20103;-62
2022/11/01 10:37:45;;;;;;;75.25;38.40;;;;;;;;;;4895285;29;20047;-63
2022/11/01 10:40:15;;;;;;;90.28;50.55;;;;;;;;;;4894990;29;20076;-62
2022/11/01 10:42:41;;;;;;;91.28;49.63;;;;;;;;;;4895201;29;20029;-67
2022/11/01 10:45:10;;;;;;;89.45;50.58;;;;;;;;;;4895528;29;20157;-64
2022/11/01 10:47:36;;;;;;;91.38;50.70;;;;;;;;;;4895691;29;20500;-63
2022/11/01 10:50:05;;;;;;;84.10;47.40;;;;;;;;;;4895456;29;20032;-65
2022/11/01 10:52:50;;;;;;;96.13;51.58;;;;;;;;;;4894462;29;20044;-63
2022/11/01 10:55:21;;;;;;;87.22;50.05;;;;;;;;;;4895841;29;20056;-64
2022/11/01 10:57:51;;;;;;;93.32;51.08;;;;;;;;;;4895890;29;20032;-63
2022/11/01 11:00:18;;;;;;;87.85;50.25;;;;;;;;;;4895559;29;20035;-62
2022/11/01 11:02:47;;;;;;;94.72;50.63;;;;;;;;;;4878185;29;20400;-62
2022/11/01 11:05:13;;;;;;;92.60;49.78;;;;;;;;;;4895051;29;20221;-67
2022/11/01 11:07:40;;;;;;;87.68;49.90;;;;;;;;;;4895065;29;20031;-67
2022/11/01 11:10:15;;;;;;;87.72;49.63;;;;;;;;;;4895280;29;20036;-63
2022/11/01 11:12:42;;;;;;;93.07;51.28;;;;;;;;;;4895156;29;20037;-63
2022/11/01 11:15:16;;;;;;;90.13;52.10;;;;;;;;;;4895451;29;20501;-63
2022/11/01 11:17:44;;;;;;;89.45;51.58;;;;;;;;;;4895286;29;20485;-64
2022/11/01 11:20:10;;;;;;;89.75;51.15;;;;;;;;;;4895091;29;20036;-66
2022/11/01 11:22:38;;;;;;;88.07;49.55;;;;;;;;;;4895084;29;20052;-62
2022/11/01 11:25:05;;;;;;;91.60;51.33;;;;;;;;;;4895105;29;20025;-65
2022/11/01 11:27:33;;;;;;;99.10;52.92;;;;;;;;;;4895079;29;20079;-62
2022/11/01 11:30:22;;;;;;;93.75;50.22;;;;;;;;;;4895112;29;20056;-67
2022/11/01 11:32:49;;;;;;;84.78;49.63;;;;;;;;;;4866294;29;20045;-63
2022/11/01 11:35:16;;;;;;;87.68;50.20;;;;;;;;;;4894760;29;20076;-65
2022/11/01 11:38:02;;;;;;;86.82;50.08;;;;;;;;;;4897081;29;20068;-64
2022/11/01 11:40:48;;;;;;;89.97;51.22;;;;;;;;;;4898407;29;20116;-63
2022/11/01 11:43:39;;;;;;;88.93;51.63;;;;;;;;;;4898150;29;20036;-63
2022/11/01 11:46:22;;;;;;;94.65;51.85;;;;;;;;;;4898302;29;20036;-63
2022/11/01 11:48:48;;;;;;;;;;;;;;;;;;4898882;29;20505;-63
2022/11/01 11:51:14;;;;;;;97.07;52.67;;;;;;;;;;4898409;29;19923;-62
2022/11/01 11:53:40;;;;;;;96.03;53.58;;;;;;;;;;4898238;29;20037;-62
2022/11/01 11:56:07;;;;;;;96.93;52.47;;;;;;;;;;4898507;29;20497;-63
2022/11/01 11:58:37;;;;;;;96.28;52.75;;;;;;;;;;4897839;29;20080;-64
2022/11/01 12:01:08;;;;;;;93.72;53.42;;;;;;;;;;4898346;29;20103;-66
2022/11/01 12:03:52;;;;;;;93.00;52.92;;;;;;;;;;4898169;29;20049;-64
2022/11/01 12:06:20;;;;;;;101.60;55.65;;;;;;;;;;4897970;29;20029;-62
2022/11/01 12:08:47;;;;;;;93.95;52.95;;;;;;;;;;4898061;29;20508;-61
2022/11/01 12:11:14;;;;;;;92.22;53.05;;;;;;;;;;4898138;29;20086;-65
2022/11/01 12:13:44;;;;;;;93.63;53.38;;;;;;;;;;4898593;29;20029;-66
2022/11/01 12:16:19;;;;;;;99.90;58.28;;;;;;;;;;4898048;29;20056;-62
2022/11/01 12:18:46;;;;;;;100.32;54.05;;;;;;;;;;4881039;29;20366;-64
2022/11/01 12:21:17;;;;;;;100.72;53.03;;;;;;;;;;4897684;29;20475;-64
2022/11/01 12:23:43;;;;;;;71.87;40.77;;;;;;;;;;4897921;29;20048;-64
2022/11/01 12:26:12;;;;;;;93.03;53.70;;;;;;;;;;4897499;29;20247;-64
2022/11/01 12:28:38;;;;;;;100.50;54.97;;;;;;;;;;4897872;29;20025;-62
2022/11/01 12:31:14;;;;;;;99.72;55.67;;;;;;;;;;4897644;29;20036;-62
2022/11/01 12:33:59;;;;;;;99.82;52.65;;;;;;;;;;4897716;29;20028;-61
2022/11/01 12:36:30;;;;;;;103.68;56.08;;;;;;;;;;4897264;29;20044;-62
2022/11/01 12:39:06;;;;;;;74.93;40.43;;;;;;;;;;4897155;29;20080;-62
2022/11/01 12:41:47;;;;;;;99.07;53.63;;;;;;;;;;4897491;29;20259;-66
2022/11/01 12:44:16;;;;;;;96.28;53.47;;;;;;;;;;4897240;29;20037;-62
2022/11/01 12:46:54;;;;;;;103.25;54.97;;;;;;;;;;4897576;29;20075;-62
2022/11/01 12:49:39;;;;;;;97.75;54.92;;;;;;;;;;4897794;29;20040;-62
2022/11/01 12:52:14;;;;;;;96.28;56.42;;;;;;;;;;4896684;29;20033;-61
2022/11/01 12:54:44;;;;;;;95.95;53.97;;;;;;;;;;4897489;29;20381;-64
2022/11/01 12:57:19;;;;;;;96.25;55.15;;;;;;;;;;4897319;29;20032;-61
2022/11/01 12:59:46;;;;;;;99.22;53.55;;;;;;;;;;4896829;29;20025;-62
2022/11/01 13:02:12;;;;;;;101.60;55.33;;;;;;;;;;4896518;29;20071;-62
2022/11/01 13:04:44;;;;;;;100.13;54.92;;;;;;;;;;4896735;29;20036;-62
2022/11/01 13:07:16;;;;;;;95.28;53.47;;;;;;;;;;4896322;29;20819;-62
2022/11/01 13:09:45;;;;;;;95.65;54.03;;;;;;;;;;4896469;29;20032;-63
2022/11/01 13:12:22;;;;;;;97.70;53.97;;;;;;;;;;4897002;29;20413;-62
2022/11/01 13:14:51;;;;;;;107.13;56.97;;;;;;;;;;4896739;29;20033;-63
2022/11/01 13:17:26;;;;;;;101.55;54.38;;;;;;;;;;4896447;29;20028;-63
2022/11/01 13:20:13;;;;;;;94.60;54.28;;;;;;;;;;4895998;29;20025;-62
2022/11/01 13:22:48;;;;;;;101.10;54.85;;;;;;;;;;4895465;29;20429;-61
2022/11/01 13:25:19;;;;;;;96.60;54.20;;;;;;;;;;4895995;29;20033;-62
2022/11/01 13:27:53;;;;;;;107.07;54.90;;;;;;;;;;4896128;29;20060;-61
2022/11/01 13:30:19;;;;;;;94.38;53.60;;;;;;;;;;4895934;29;20081;-61
2022/11/01 13:33:03;;;;;;;96.55;53.53;;;;;;;;;;4895834;29;20032;-61
2022/11/01 13:35:39;;;;;;;97.82;53.00;;;;;;;;;;4896186;29;20047;-65
2022/11/01 13:38:05;;;;;;;102.03;54.03;;;;;;;;;;4896248;29;20032;-61
2022/11/01 13:40:36;;;;;;;99.30;51.90;;;;;;;;;;4896881;29;20392;-66
2022/11/01 13:43:05;;;;;;;94.85;54.42;;;;;;;;;;4896534;29;20503;-62
2022/11/01 13:45:34;;;;;;;94.35;53.65;;;;;;;;;;4896490;29;20048;-64
2022/11/01 13:48:13;;;;;;;90.60;52.85;;;;;;;;;;4896280;29;20111;-61
2022/11/01 13:50:46;;;;;;;93.03;51.65;;;;;;;;;;4896388;29;20409;-69
2022/11/01 13:53:19;;;;;;;94.82;53.20;;;;;;;;;;4896498;29;20036;-62
2022/11/01 13:55:49;;;;;;;94.95;52.60;;;;;;;;;;4896572;29;20088;-62
2022/11/01 13:58:17;;;;;;;98.78;53.63;;;;;;;;;;4896058;29;20483;-62
2022/11/01 14:00:45;;;;;;;88.45;52.50;;;;;;;;;;4895762;29;20032;-63
2022/11/01 14:03:31;;;;;;;95.72;54.33;;;;;;;;;;4895931;29;20070;-63
2022/11/01 14:06:23;;;;;;;92.07;52.58;;;;;;;;;;4890463;29;20040;-63
2022/11/01 14:08:53;;;;;;;91.43;52.97;;;;;;;;;;4872752;29;20044;-66
2022/11/01 14:11:38;;;;;;;96.32;52.60;;;;;;;;;;4876517;29;20037;-63
2022/11/01 14:14:24;;;;;;;92.97;52.72;;;;;;;;;;4877129;29;20033;-63
2022/11/01 14:16:50;;;;;;;97.20;52.97;;;;;;;;;;4876855;29;20060;-66
2022/11/01 14:19:19;;;;;;;93.35;51.97;;;;;;;;;;4876620;29;20090;-66
2022/11/01 14:21:46;;;;;;;93.70;51.97;;;;;;;;;;4876556;29;20474;-64
2022/11/01 14:24:26;;;;;;;94.93;52.65;;;;;;;;;;4876584;29;20036;-64
2022/11/01 14:27:04;;;;;;;95.85;52.97;;;;;;;;;;4876859;29;20379;-64
2022/11/01 14:29:31;;;;;;;88.93;52.25;;;;;;;;;;4876598;29;20431;-63
2022/11/01 14:31:58;;;;;;;93.82;51.35;;;;;;;;;;4876203;29;20513;-62
2022/11/01 14:34:26;;;;;;;90.93;50.42;;;;;;;;;;4876200;29;20044;-64
2022/11/01 14:36:54;;;;;;;93.47;52.08;;;;;;;;;;4876378;29;20036;-62